Time;durP1;ratioP1;P1;durP2;ratioP2;P2;SDS_P1;SDS_P2;PMS_P1;PMS_P2;Temp;Humidity;BMP_temperature;BMP_pressure;BME280_temperature;BME280_humidity;BME280_pressure;Samples;Min_cycle;Max_cycle;Signal;HPM_P1;HPM_P2
2022/02/27 00:01:41;;;;;;;;;;;19.00;58.90;;;;;;5052781;28;1302;-67
2022/02/27 00:04:06;;;;;;;;;;;19.00;58.90;;;;;;5051472;28;1022;-68
2022/02/27 00:06:32;;;;;;;;;;;19.00;58.90;;;;;;5052909;28;1048;-69
2022/02/27 00:08:58;;;;;;;;;;;19.00;58.90;;;;;;5051219;28;701;-70
2022/02/27 00:11:23;;;;;;;;;;;19.00;58.90;;;;;;5052842;28;1180;-70
2022/02/27 00:13:49;;;;;;;;;;;19.00;58.90;;;;;;5052803;28;838;-69
2022/02/27 00:16:14;;;;;;;;;;;19.00;59.00;;;;;;5052574;28;796;-69
2022/02/27 00:18:40;;;;;;;;;;;18.90;58.90;;;;;;5052464;28;1894;-70
2022/02/27 00:21:05;;;;;;;;;;;18.90;58.90;;;;;;5048949;28;1393;-69
2022/02/27 00:23:30;;;;;;;;;;;18.90;59.00;;;;;;5031611;28;931;-69
2022/02/27 00:25:56;;;;;;;;;;;18.90;59.00;;;;;;5014900;28;951;-68
2022/02/27 00:28:21;;;;;;;;;;;18.90;59.00;;;;;;5033976;28;1072;-67
2022/02/27 00:30:47;;;;;;;;;;;18.90;59.00;;;;;;5053842;28;1282;-67
2022/02/27 00:33:12;;;;;;;;;;;18.90;59.00;;;;;;5056470;28;895;-68
2022/02/27 00:35:39;;;;;;;;;;;18.90;59.00;;;;;;5055249;28;1195;-67
2022/02/27 00:38:05;;;;;;;;;;;18.90;59.00;;;;;;5055117;28;1898;-68
2022/02/27 00:40:30;;;;;;;;;;;18.90;59.00;;;;;;5054924;28;1288;-68
2022/02/27 00:42:56;;;;;;;;;;;18.90;59.00;;;;;;5055535;28;729;-68
2022/02/27 00:45:21;;;;;;;;;;;18.90;59.00;;;;;;5056237;28;768;-67
2022/02/27 00:47:47;;;;;;;;;;;18.90;59.00;;;;;;5056373;28;1021;-68
2022/02/27 00:50:13;;;;;;;;;;;18.90;59.10;;;;;;5054688;28;1224;-68
2022/02/27 00:52:38;;;;;;;;;;;18.90;59.10;;;;;;5055033;28;1029;-67
2022/02/27 00:55:04;;;;;;;;;;;18.90;59.10;;;;;;5054758;28;780;-67
2022/02/27 00:57:29;;;;;;;;;;;18.90;59.10;;;;;;5056505;28;1950;-67
2022/02/27 00:59:56;;;;;;;;;;;18.90;59.10;;;;;;5055635;28;823;-67
2022/02/27 01:02:22;;;;;;;;;;;18.90;59.10;;;;;;5054910;28;1302;-67
2022/02/27 01:04:47;;;;;;;;;;;18.90;59.10;;;;;;5055902;28;1010;-67
2022/02/27 01:07:13;;;;;;;;;;;18.90;59.10;;;;;;5055526;28;890;-67
2022/02/27 01:09:38;;;;;;;;;;;18.90;59.10;;;;;;5054390;28;827;-67
2022/02/27 01:12:05;;;;;;;;;;;18.80;59.10;;;;;;5055850;28;1193;-68
2022/02/27 01:14:30;;;;;;;;;;;18.90;59.20;;;;;;5055722;28;899;-67
2022/02/27 01:16:56;;;;;;;;;;;18.90;59.20;;;;;;5054649;28;1975;-67
2022/02/27 01:19:22;;;;;;;;;;;18.90;59.20;;;;;;5054234;28;784;-68
2022/02/27 01:21:47;;;;;;;;;;;18.80;59.20;;;;;;5047485;28;1194;-68
2022/02/27 01:24:12;;;;;;;;;;;18.80;59.20;;;;;;5034364;28;721;-68
2022/02/27 01:26:38;;;;;;;;;;;18.80;59.20;;;;;;5035717;28;800;-69
2022/02/27 01:29:03;;;;;;;;;;;18.80;59.20;;;;;;5043460;28;1151;-70
2022/02/27 01:31:29;;;;;;;;;;;18.80;59.20;;;;;;5055311;28;1287;-70
2022/02/27 01:33:54;;;;;;;;;;;18.80;59.20;;;;;;5036719;28;1169;-70
2022/02/27 01:36:20;;;;;;;;;;;18.80;59.20;;;;;;5034135;28;898;-70
2022/02/27 01:38:48;;;;;;;;;;;18.80;59.20;;;;;;5035174;28;1958;-70
2022/02/27 01:41:13;;;;;;;;;;;18.80;59.20;;;;;;5034931;28;1209;-70
2022/02/27 01:43:39;;;;;;;;;;;18.80;59.20;;;;;;5034452;28;1193;-69
2022/02/27 01:46:07;;;;;;;;;;;18.80;59.20;;;;;;5035310;28;883;-68
2022/02/27 01:48:33;;;;;;;;;;;18.80;59.20;;;;;;5035293;28;922;-67
2022/02/27 01:50:58;;;;;;;;;;;18.80;59.30;;;;;;5033998;28;1195;-67
2022/02/27 01:53:26;;;;;;;;;;;18.80;59.30;;;;;;5035156;28;788;-67
2022/02/27 01:55:52;;;;;;;;;;;18.80;59.30;;;;;;5033847;28;868;-67
2022/02/27 01:58:17;;;;;;;;;;;18.80;59.30;;;;;;5034997;28;1957;-67
2022/02/27 02:00:42;;;;;;;;;;;18.80;59.30;;;;;;5033393;28;1303;-68
2022/02/27 02:03:08;;;;;;;;;;;18.80;59.30;;;;;;5034977;28;831;-68
2022/02/27 02:05:33;;;;;;;;;;;18.80;59.30;;;;;;5034912;28;784;-68
2022/02/27 02:07:59;;;;;;;;;;;18.80;59.30;;;;;;5034914;28;965;-68
2022/02/27 02:10:24;;;;;;;;;;;18.80;59.30;;;;;;5033188;28;1273;-69
2022/02/27 02:12:50;;;;;;;;;;;18.80;59.30;;;;;;5034661;28;919;-69
2022/02/27 02:15:15;;;;;;;;;;;18.80;59.40;;;;;;5034643;28;922;-69
2022/02/27 02:17:41;;;;;;;;;;;18.80;59.40;;;;;;5034839;28;1897;-69
2022/02/27 02:20:06;;;;;;;;;;;18.80;59.40;;;;;;5033076;28;809;-69
2022/02/27 02:22:32;;;;;;;;;;;18.80;59.40;;;;;;5030975;28;1312;-69
2022/02/27 02:24:57;;;;;;;;;;;18.80;59.40;;;;;;5054511;28;835;-69
2022/02/27 02:27:23;;;;;;;;;;;18.80;59.40;;;;;;5054324;28;726;-70
2022/02/27 02:29:48;;;;;;;;;;;18.80;59.40;;;;;;5038885;28;1024;-70
2022/02/27 02:32:13;;;;;;;;;;;18.80;59.40;;;;;;5034254;28;1197;-71
2022/02/27 02:34:39;;;;;;;;;;;18.80;59.40;;;;;;5041126;28;1209;-72
2022/02/27 02:37:04;;;;;;;;;;;18.80;59.40;;;;;;5053825;28;1961;-71
2022/02/27 02:39:30;;;;;;;;;;;18.80;59.40;;;;;;5052798;28;1061;-70
2022/02/27 02:41:56;;;;;;;;;;;18.80;59.30;;;;;;5052744;28;1238;-70
2022/02/27 02:44:21;;;;;;;;;;;18.80;59.30;;;;;;5054273;28;803;-68
2022/02/27 02:46:46;;;;;;;;;;;18.80;59.20;;;;;;5054128;28;898;-68
2022/02/27 02:49:12;;;;;;;;;;;18.80;59.20;;;;;;5053760;28;894;-69
2022/02/27 02:51:38;;;;;;;;;;;18.90;59.10;;;;;;5052698;28;1343;-69
2022/02/27 02:54:04;;;;;;;;;;;18.90;59.10;;;;;;5053812;28;1013;-69
2022/02/27 02:56:29;;;;;;;;;;;18.90;58.90;;;;;;5052494;28;818;-69
2022/02/27 02:58:54;;;;;;;;;;;18.90;58.90;;;;;;5052346;28;1030;-68
2022/02/27 03:01:20;;;;;;;;;;;18.90;58.80;;;;;;5052448;28;1201;-69
2022/02/27 03:03:46;;;;;;;;;;;19.00;58.80;;;;;;5052836;28;725;-69
2022/02/27 03:06:12;;;;;;;;;;;19.00;58.70;;;;;;5053574;28;1073;-68
2022/02/27 03:08:38;;;;;;;;;;;19.00;58.60;;;;;;5049044;28;1263;-70
2022/02/27 03:11:03;;;;;;;;;;;19.10;58.60;;;;;;5052250;28;1325;-68
2022/02/27 03:13:29;;;;;;;;;;;19.10;58.50;;;;;;5044606;28;1211;-68
2022/02/27 03:15:54;;;;;;;;;;;19.10;58.50;;;;;;5041952;28;1350;-68
2022/02/27 03:18:19;;;;;;;;;;;19.10;59.00;;;;;;5043302;28;1898;-67
2022/02/27 03:20:45;;;;;;;;;;;19.10;58.40;;;;;;5043572;28;1367;-68
2022/02/27 03:23:10;;;;;;;;;;;19.10;58.30;;;;;;5044218;28;1217;-67
2022/02/27 03:25:36;;;;;;;;;;;19.10;58.30;;;;;;5044737;28;1282;-68
2022/02/27 03:28:01;;;;;;;;;;;19.10;58.30;;;;;;5053301;28;991;-69
2022/02/27 03:30:27;;;;;;;;;;;19.10;58.80;;;;;;5033098;28;1293;-68
2022/02/27 03:32:52;;;;;;;;;;;19.20;58.30;;;;;;5034126;28;1001;-68
2022/02/27 03:35:18;;;;;;;;;;;19.10;58.20;;;;;;5045285;28;1217;-68
2022/02/27 03:37:43;;;;;;;;;;;19.20;58.30;;;;;;5053206;28;1968;-68
2022/02/27 03:40:09;;;;;;;;;;;19.20;58.30;;;;;;5051538;28;1271;-69
2022/02/27 03:42:34;;;;;;;;;;;19.20;58.20;;;;;;5051889;28;831;-67
2022/02/27 03:45:00;;;;;;;;;;;19.20;58.20;;;;;;5051959;28;1060;-68
2022/02/27 03:47:25;;;;;;;;;;;19.20;58.20;;;;;;5051778;28;990;-68
2022/02/27 03:49:51;;;;;;;;;;;19.20;58.20;;;;;;5051771;28;978;-68
2022/02/27 03:52:17;;;;;;;;;;;19.20;58.20;;;;;;5052882;28;1295;-67
2022/02/27 03:54:42;;;;;;;;;;;19.20;58.20;;;;;;5053076;28;879;-68
2022/02/27 03:57:08;;;;;;;;;;;19.20;58.20;;;;;;5051558;28;1894;-67
2022/02/27 03:59:33;;;;;;;;;;;19.20;58.20;;;;;;5051329;28;919;-67
2022/02/27 04:01:58;;;;;;;;;;;19.20;58.20;;;;;;5051679;28;1189;-68
2022/02/27 04:04:24;;;;;;;;;;;19.20;58.20;;;;;;5053466;28;895;-67
2022/02/27 04:06:50;;;;;;;;;;;19.20;58.20;;;;;;5059142;28;791;-68
2022/02/27 04:09:15;;;;;;;;;;;19.20;58.70;;;;;;5059227;28;800;-69
2022/02/27 04:11:40;;;;;;;;;;;19.20;58.10;;;;;;5059610;28;1177;-68
2022/02/27 04:14:06;;;;;;;;;;;19.20;58.10;;;;;;5058461;28;824;-68
2022/02/27 04:16:31;;;;;;;;;;;19.20;58.10;;;;;;5058211;28;781;-69
2022/02/27 04:18:57;;;;;;;;;;;19.20;58.10;;;;;;5059171;28;1894;-68
2022/02/27 04:21:22;;;;;;;;;;;19.20;58.10;;;;;;5054493;28;1266;-67
2022/02/27 04:23:48;;;;;;;;;;;19.20;58.10;;;;;;5038203;28;853;-69
2022/02/27 04:26:13;;;;;;;;;;;19.20;58.10;;;;;;5039217;28;1029;-67
2022/02/27 04:28:39;;;;;;;;;;;19.20;58.00;;;;;;5026640;28;1155;-68
2022/02/27 04:31:04;;;;;;;;;;;19.20;58.10;;;;;;5059144;28;1221;-69
2022/02/27 04:33:29;;;;;;;;;;;19.20;58.60;;;;;;5058158;28;942;-67
2022/02/27 04:35:55;;;;;;;;;;;19.20;58.00;;;;;;5058330;28;1178;-67
2022/02/27 04:38:20;;;;;;;;;;;19.20;58.00;;;;;;5059279;28;1902;-69
2022/02/27 04:40:46;;;;;;;;;;;19.20;58.00;;;;;;5058874;28;1162;-67
2022/02/27 04:43:11;;;;;;;;;;;19.20;58.00;;;;;;5059672;28;836;-68
2022/02/27 04:45:36;;;;;;;;;;;19.20;58.00;;;;;;5058116;28;839;-68
2022/02/27 04:48:02;;;;;;;;;;;19.20;58.00;;;;;;5059375;28;946;-67
2022/02/27 04:50:27;;;;;;;;;;;19.20;58.00;;;;;;5057529;28;1200;-68
2022/02/27 04:52:53;;;;;;;;;;;19.20;58.00;;;;;;5059250;28;1026;-68
2022/02/27 04:55:19;;;;;;;;;;;19.20;58.00;;;;;;5058978;28;863;-68
2022/02/27 04:57:45;;;;;;;;;;;19.20;58.00;;;;;;5058997;28;1922;-68
2022/02/27 05:00:10;;;;;;;;;;;19.20;58.00;;;;;;5057774;28;1196;-67
2022/02/27 05:02:36;;;;;;;;;;;19.20;58.00;;;;;;5058133;28;1002;-68
2022/02/27 05:05:01;;;;;;;;;;;19.20;58.00;;;;;;5057630;28;1029;-68
2022/02/27 05:07:27;;;;;;;;;;;19.20;58.00;;;;;;5059118;28;788;-68
2022/02/27 05:09:52;;;;;;;;;;;19.20;58.00;;;;;;5059075;28;922;-68
2022/02/27 05:12:18;;;;;;;;;;;19.20;58.00;;;;;;5039350;28;1745;-73
2022/02/27 05:14:43;;;;;;;;;;;19.20;58.00;;;;;;5059064;28;1635;-75
2022/02/27 05:17:08;;;;;;;;;;;19.20;58.00;;;;;;5039624;28;1956;-70
2022/02/27 05:19:34;;;;;;;;;;;19.20;58.00;;;;;;5053661;28;1279;-70
2022/02/27 05:21:59;;;;;;;;;;;19.20;58.00;;;;;;5044656;28;1256;-68
2022/02/27 05:24:25;;;;;;;;;;;19.20;58.00;;;;;;5034881;28;880;-68
2022/02/27 05:26:50;;;;;;;;;;;19.20;58.00;;;;;;5033513;28;959;-69
2022/02/27 05:29:16;;;;;;;;;;;19.20;58.00;;;;;;5043144;28;1140;-69
2022/02/27 05:31:41;;;;;;;;;;;19.20;58.00;;;;;;5053126;28;1233;-68
2022/02/27 05:34:08;;;;;;;;;;;19.30;58.00;;;;;;5036779;28;1253;-70
2022/02/27 05:36:33;;;;;;;;;;;19.20;57.90;;;;;;5054577;28;866;-70
2022/02/27 05:38:59;;;;;;;;;;;19.20;57.90;;;;;;5054336;28;1961;-70
2022/02/27 05:41:24;;;;;;;;;;;19.20;57.90;;;;;;5054377;28;1231;-69
2022/02/27 05:43:49;;;;;;;;;;;19.20;58.50;;;;;;5054418;28;907;-69
2022/02/27 05:46:15;;;;;;;;;;;19.20;57.90;;;;;;5054284;28;1000;-69
2022/02/27 05:48:41;;;;;;;;;;;19.20;57.90;;;;;;5054122;28;938;-70
2022/02/27 05:51:06;;;;;;;;;;;19.20;57.90;;;;;;5053093;28;1629;-71
2022/02/27 05:53:32;;;;;;;;;;;19.30;58.00;;;;;;5054108;28;911;-69
2022/02/27 05:55:57;;;;;;;;;;;19.20;57.90;;;;;;5054101;28;903;-68
2022/02/27 05:58:23;;;;;;;;;;;19.20;58.50;;;;;;5054097;28;1894;-70
2022/02/27 06:00:49;;;;;;;;;;;19.20;58.00;;;;;;5052223;28;1203;-68
2022/02/27 06:03:16;;;;;;;;;;;19.20;58.00;;;;;;5053970;28;1010;-68
2022/02/27 06:05:42;;;;;;;;;;;19.20;58.00;;;;;;5052659;28;941;-67
2022/02/27 06:08:07;;;;;;;;;;;19.20;58.00;;;;;;5054371;28;852;-69
2022/02/27 06:10:33;;;;;;;;;;;19.20;58.00;;;;;;5054264;28;1212;-69
2022/02/27 06:12:58;;;;;;;;;;;19.20;58.00;;;;;;5054801;28;900;-69
2022/02/27 06:15:24;;;;;;;;;;;19.20;58.00;;;;;;5054644;28;804;-69
2022/02/27 06:17:49;;;;;;;;;;;19.20;58.00;;;;;;5054619;28;1914;-69
2022/02/27 06:20:15;;;;;;;;;;;19.20;58.00;;;;;;5054242;28;1223;-69
2022/02/27 06:22:43;;;;;;;;;;;19.20;58.00;;;;;;5039235;28;1098;-69
2022/02/27 06:25:09;;;;;;;;;;;19.20;57.90;;;;;;5033636;28;962;-68
2022/02/27 06:27:40;;;;;;;;;;;19.20;57.90;;;;;;5033195;28;1076;-70
2022/02/27 06:30:06;;;;;;;;;;;19.20;57.90;;;;;;5050969;28;1234;-69
2022/02/27 06:32:32;;;;;;;;;;;19.20;57.90;;;;;;5052889;28;1271;-69
2022/02/27 06:34:57;;;;;;;;;;;19.20;57.90;;;;;;5044879;28;1114;-69
2022/02/27 06:37:22;;;;;;;;;;;19.20;57.90;;;;;;5032788;28;1911;-69
2022/02/27 06:39:48;;;;;;;;;;;19.20;57.90;;;;;;5034144;28;1065;-69
2022/02/27 06:42:13;;;;;;;;;;;19.20;57.90;;;;;;5034453;28;1268;-69
2022/02/27 06:44:39;;;;;;;;;;;19.20;57.90;;;;;;5033099;28;946;-69
2022/02/27 06:47:04;;;;;;;;;;;19.20;57.90;;;;;;5034095;28;764;-69
2022/02/27 06:49:30;;;;;;;;;;;19.20;57.90;;;;;;5033979;28;918;-70
2022/02/27 06:51:55;;;;;;;;;;;19.20;57.90;;;;;;5033744;28;1217;-70
2022/02/27 06:54:23;;;;;;;;;;;19.20;57.90;;;;;;5034097;28;762;-69
2022/02/27 06:56:49;;;;;;;;;;;19.20;57.90;;;;;;5034144;28;1906;-69
2022/02/27 06:59:15;;;;;;;;;;;19.20;57.90;;;;;;5034046;28;1013;-69
2022/02/27 07:01:42;;;;;;;;;;;19.20;57.90;;;;;;5033766;28;1311;-69
2022/02/27 07:04:08;;;;;;;;;;;19.20;57.90;;;;;;5032576;28;930;-70
2022/02/27 07:06:33;;;;;;;;;;;19.20;57.90;;;;;;5033585;28;708;-69
2022/02/27 07:08:59;;;;;;;;;;;19.20;57.90;;;;;;5039982;28;2326;-69
2022/02/27 07:11:24;;;;;;;;;;;19.20;57.90;;;;;;5049912;28;1327;-69
2022/02/27 07:13:50;;;;;;;;;;;19.20;57.90;;;;;;5047442;28;1090;-69
2022/02/27 07:16:15;;;;;;;;;;;19.20;57.90;;;;;;5053464;28;1204;-69
2022/02/27 07:18:41;;;;;;;;;;;19.20;57.90;;;;;;5053298;28;2027;-70
2022/02/27 07:21:07;;;;;;;;;;;19.20;57.90;;;;;;5049431;28;1316;-69
2022/02/27 07:23:32;;;;;;;;;;;19.20;57.90;;;;;;5033609;28;887;-67
2022/02/27 07:25:58;;;;;;;;;;;19.20;57.90;;;;;;5033466;28;1033;-67
2022/02/27 07:28:23;;;;;;;;;;;19.20;57.90;;;;;;5036143;28;1185;-67
2022/02/27 07:30:49;;;;;;;;;;;19.20;57.90;;;;;;5052864;28;1293;-65
2022/02/27 07:33:14;;;;;;;;;;;19.20;57.90;;;;;;5053590;28;819;-66
2022/02/27 07:35:39;;;;;;;;;;;19.20;57.90;;;;;;5052913;28;1134;-66
2022/02/27 07:38:05;;;;;;;;;;;19.20;57.80;;;;;;5053436;28;1914;-67
2022/02/27 07:40:30;;;;;;;;;;;19.20;57.80;;;;;;5052065;28;1212;-67
2022/02/27 07:42:56;;;;;;;;;;;19.20;57.90;;;;;;5053084;28;930;-68
2022/02/27 07:45:21;;;;;;;;;;;19.30;57.90;;;;;;5052970;28;887;-67
2022/02/27 07:47:47;;;;;;;;;;;19.20;57.80;;;;;;5053000;28;843;-67
2022/02/27 07:50:13;;;;;;;;;;;19.20;57.80;;;;;;5051418;28;1303;-67
2022/02/27 07:52:38;;;;;;;;;;;19.30;57.90;;;;;;5052725;28;862;-66
2022/02/27 07:55:04;;;;;;;;;;;19.30;57.70;;;;;;5052914;28;836;-68
2022/02/27 07:57:29;;;;;;;;;;;19.50;57.70;;;;;;5052794;28;1960;-69
2022/02/27 07:59:54;;;;;;;;;;;19.60;57.50;;;;;;5052577;28;926;-70
2022/02/27 08:02:20;;;;;;;;;;;19.80;57.30;;;;;;5052699;28;1168;-70
2022/02/27 08:04:45;;;;;;;;;;;19.90;57.00;;;;;;5052792;28;935;-70
2022/02/27 08:07:11;;;;;;;;;;;20.00;56.80;;;;;;5052632;28;694;-70
2022/02/27 08:09:36;;;;;;;;;;;20.20;56.50;;;;;;5051500;28;707;-70
2022/02/27 08:12:02;;;;;;;;;;;20.30;56.20;;;;;;5052890;28;1209;-70
2022/02/27 08:14:27;;;;;;;;;;;20.40;55.90;;;;;;5051607;28;804;-70
2022/02/27 08:16:52;;;;;;;;;;;20.50;55.60;;;;;;5052571;28;1898;-70
2022/02/27 08:19:18;;;;;;;;;;;20.60;55.30;;;;;;5052619;28;938;-70
2022/02/27 08:21:43;;;;;;;;;;;20.70;55.10;;;;;;5044963;28;1499;-70
2022/02/27 08:24:09;;;;;;;;;;;20.80;54.90;;;;;;5031736;28;804;-70
2022/02/27 08:26:35;;;;;;;;;;;20.80;54.70;;;;;;5033107;28;824;-70
2022/02/27 08:29:02;;;;;;;;;;;20.90;54.60;;;;;;5040295;28;1103;-70
2022/02/27 08:31:29;;;;;;;;;;;20.80;54.60;;;;;;5051416;28;1290;-70
2022/02/27 08:33:55;;;;;;;;;;;20.90;54.60;;;;;;5052014;28;1169;-70
2022/02/27 08:36:20;;;;;;;;;;;20.90;54.60;;;;;;5032477;28;1251;-70
2022/02/27 08:38:47;;;;;;;;;;;20.90;54.60;;;;;;5032440;28;1902;-70
2022/02/27 08:41:13;;;;;;;;;;;20.90;54.60;;;;;;5032611;28;1236;-70
2022/02/27 08:43:38;;;;;;;;;;;20.90;54.60;;;;;;5032559;28;1062;-70
2022/02/27 08:46:04;;;;;;;;;;;20.90;54.60;;;;;;5031462;28;1073;-70
2022/02/27 08:48:30;;;;;;;;;;;20.90;54.60;;;;;;5032500;28;795;-70
2022/02/27 08:50:55;;;;;;;;;;;20.90;54.60;;;;;;5032572;28;1279;-70
2022/02/27 08:53:21;;;;;;;;;;;20.90;55.10;;;;;;5036545;28;914;-70
2022/02/27 08:55:46;;;;;;;;;;;20.90;54.60;;;;;;5035114;28;823;-70
2022/02/27 08:58:12;;;;;;;;;;;20.90;54.60;;;;;;5034935;28;1894;-70
2022/02/27 09:00:37;;;;;;;;;;;20.90;54.60;;;;;;5034715;28;1294;-70
2022/02/27 09:03:03;;;;;;;;;;;20.90;54.60;;;;;;5036246;28;828;-70
2022/02/27 09:05:28;;;;;;;;;;;20.90;54.60;;;;;;5034980;28;869;-70
2022/02/27 09:07:54;;;;;;;;;;;20.80;54.60;;;;;;5036074;28;796;-70
2022/02/27 09:10:20;;;;;;;;;;;20.80;54.70;;;;;;5036063;28;1221;-70
2022/02/27 09:12:46;;;;;;;;;;;20.80;54.80;;;;;;5034931;28;801;-70
2022/02/27 09:15:11;;;;;;;;;;;20.80;54.90;;;;;;5034693;28;1442;-70
2022/02/27 09:17:37;;;;;;;;;;;20.80;54.90;;;;;;5034688;28;1914;-70
2022/02/27 09:20:03;;;;;;;;;;;20.80;54.90;;;;;;5035429;28;883;-68
2022/02/27 09:22:28;;;;;;;;;;;20.70;55.00;;;;;;5043463;28;1773;-69
2022/02/27 09:24:54;;;;;;;;;;;20.70;55.00;;;;;;5052926;28;1045;-69
2022/02/27 09:27:19;;;;;;;;;;;20.70;55.00;;;;;;5055190;28;887;-69
2022/02/27 09:29:44;;;;;;;;;;;20.70;55.10;;;;;;5053501;28;1070;-69
2022/02/27 09:32:10;;;;;;;;;;;20.70;55.10;;;;;;5054412;28;1118;-69
2022/02/27 09:34:35;;;;;;;;;;;20.60;55.20;;;;;;5048626;28;1110;-70
2022/02/27 09:37:01;;;;;;;;;;;20.60;55.20;;;;;;5035231;28;1906;-70
2022/02/27 09:39:28;;;;;;;;;;;20.60;55.20;;;;;;5017335;28;2103;-69
2022/02/27 09:41:53;;;;;;;;;;;20.60;55.30;;;;;;5035050;28;1265;-70
2022/02/27 09:44:19;;;;;;;;;;;20.60;55.40;;;;;;5035123;28;703;-70
2022/02/27 09:46:48;;;;;;;;;;;20.60;55.40;;;;;;5033853;28;652;-70
2022/02/27 09:49:13;;;;;;;;;;;20.60;55.50;;;;;;5033416;28;899;-70
2022/02/27 09:51:39;;;;;;;;;;;20.60;55.50;;;;;;5033727;28;1212;-69
2022/02/27 09:54:05;;;;;;;;;;;20.50;55.50;;;;;;5033915;28;840;-69
2022/02/27 09:56:30;;;;;;;;;;;20.50;55.60;;;;;;5034783;28;851;-69
2022/02/27 09:58:56;;;;;;;;;;;20.50;55.60;;;;;;5033197;28;1898;-68
2022/02/27 10:01:21;;;;;;;;;;;20.50;55.60;;;;;;5034690;28;1209;-69
2022/02/27 10:03:47;;;;;;;;;;;20.50;55.70;;;;;;5033613;28;772;-69
2022/02/27 10:06:12;;;;;;;;;;;20.40;55.70;;;;;;5034681;28;789;-69
2022/02/27 10:08:39;;;;;;;;;;;20.40;55.80;;;;;;5033246;28;792;-69
2022/02/27 10:11:04;;;;;;;;;;;20.40;55.80;;;;;;5034417;28;1287;-68
2022/02/27 10:13:33;;;;;;;;;;;20.40;55.90;;;;;;5033454;28;844;-69
2022/02/27 10:16:02;;;;;;;;;;;20.40;55.90;;;;;;5016563;28;1328;-69
2022/02/27 10:18:28;;;;;;;;;;;20.40;55.90;;;;;;5032880;28;1953;-70
2022/02/27 10:20:53;;;;;;;;;;;20.30;55.90;;;;;;5033368;28;1336;-69
2022/02/27 10:23:22;;;;;;;;;;;20.30;56.00;;;;;;5054669;28;714;-67
2022/02/27 10:25:48;;;;;;;;;;;20.30;56.00;;;;;;5053176;28;1021;-69
2022/02/27 10:28:13;;;;;;;;;;;20.30;56.00;;;;;;5052747;28;1252;-69
2022/02/27 10:30:39;;;;;;;;;;;20.30;56.10;;;;;;5033684;28;1299;-70
2022/02/27 10:33:05;;;;;;;;;;;20.30;56.10;;;;;;5034875;28;721;-69
2022/02/27 10:35:53;;;;;;;;;;;20.20;56.10;;;;;;5047056;28;1143;-69
2022/02/27 10:38:28;;;;;;;;;;;20.20;56.10;;;;;;5054461;28;1959;-69
2022/02/27 10:40:53;;;;;;;;;;;20.20;56.20;;;;;;5054075;28;1303;-69
2022/02/27 10:43:19;;;;;;;;;;;20.20;56.20;;;;;;5054053;28;1017;-69
2022/02/27 10:45:44;;;;;;;;;;;20.20;56.20;;;;;;5053047;28;803;-70
2022/02/27 10:48:14;;;;;;;;;;;20.20;56.30;;;;;;5052726;28;1310;-68
2022/02/27 10:50:39;;;;;;;;;;;20.20;56.30;;;;;;5053712;28;1615;-69
2022/02/27 10:53:05;;;;;;;;;;;20.20;56.30;;;;;;5052913;28;773;-70
2022/02/27 10:55:30;;;;;;;;;;;20.20;56.40;;;;;;5052810;28;780;-68
2022/02/27 10:57:56;;;;;;;;;;;20.20;56.40;;;;;;5053675;28;1906;-68
2022/02/27 11:00:21;;;;;;;;;;;20.10;56.40;;;;;;5053568;28;1185;-68
2022/02/27 11:02:47;;;;;;;;;;;20.10;56.40;;;;;;5053818;28;986;-69
2022/02/27 11:05:16;;;;;;;;;;;20.10;56.40;;;;;;5052596;28;1014;-68
2022/02/27 11:07:43;;;;;;;;;;;20.10;56.40;;;;;;5053696;28;1084;-69
2022/02/27 11:10:09;;;;;;;;;;;20.10;56.50;;;;;;5053595;28;863;-69
2022/02/27 11:12:35;;;;;;;;;;;20.10;56.50;;;;;;5051260;28;2169;-68
2022/02/27 11:15:01;;;;;;;;;;;20.10;56.50;;;;;;5046499;28;1129;-68
2022/02/27 11:17:26;;;;;;;;;;;20.10;56.60;;;;;;5050866;28;1906;-68
2022/02/27 11:19:51;;;;;;;;;;;20.00;56.50;;;;;;5053296;28;942;-69
2022/02/27 11:22:17;;;;;;;;;;;20.00;56.60;;;;;;5039995;28;1193;-68
2022/02/27 11:24:43;;;;;;;;;;;20.00;56.60;;;;;;5032358;28;994;-68
2022/02/27 11:27:09;;;;;;;;;;;20.00;56.70;;;;;;5032075;28;924;-68
2022/02/27 11:29:34;;;;;;;;;;;20.00;56.70;;;;;;5045519;28;1313;-68
2022/02/27 11:32:00;;;;;;;;;;;20.00;56.80;;;;;;5052030;28;1228;-66
2022/02/27 11:34:29;;;;;;;;;;;20.00;56.80;;;;;;5028078;28;2195;-67
2022/02/27 11:36:55;;;;;;;;;;;20.00;56.80;;;;;;5041320;28;1906;-68
2022/02/27 11:42:04;;;;;;;;;;;19.90;56.70;;;;;;5032122;28;1340;-67
2022/02/27 11:44:34;;;;;;;;;;;19.90;56.80;;;;;;5032368;28;1234;-67
2022/02/27 11:47:09;;;;;;;;;;;19.90;56.80;;;;;;5033403;28;910;-67
2022/02/27 11:49:39;;;;;;;;;;;19.90;56.70;;;;;;5031789;28;828;-67
2022/02/27 11:52:07;;;;;;;;;;;20.00;56.80;;;;;;5031683;28;1224;-67
2022/02/27 11:54:37;;;;;;;;;;;20.00;56.80;;;;;;5033088;28;1044;-68
2022/02/27 11:57:09;;;;;;;;;;;20.00;56.70;;;;;;5032928;28;1894;-66
2022/02/27 11:59:47;;;;;;;;;;;20.10;56.70;;;;;;5032813;28;923;-67
2022/02/27 12:02:23;;;;;;;;;;;20.10;56.60;;;;;;5031859;28;1219;-67
2022/02/27 12:04:55;;;;;;;;;;;20.10;56.50;;;;;;5033081;28;922;-67
2022/02/27 12:07:20;;;;;;;;;;;20.10;56.40;;;;;;5015583;28;847;-68
2022/02/27 12:09:52;;;;;;;;;;;20.20;56.40;;;;;;5032761;28;1017;-68
2022/02/27 12:12:30;;;;;;;;;;;20.20;56.40;;;;;;5032898;28;1178;-68
2022/02/27 12:14:55;;;;;;;;;;;20.20;56.40;;;;;;5032884;28;878;-68
2022/02/27 12:17:40;;;;;;;;;;;20.20;56.20;;;;;;5031513;28;1886;-68
2022/02/27 12:20:05;;;;;;;;;;;20.20;56.20;;;;;;5032691;28;998;-67
2022/02/27 12:22:41;;;;;;;;;;;20.20;56.20;;;;;;5045394;28;1286;-67
2022/02/27 12:25:07;;;;;;;;;;;20.20;56.20;;;;;;5053160;28;910;-68
2022/02/27 12:27:38;;;;;;;;;;;20.20;56.20;;;;;;5055507;28;780;-68
2022/02/27 12:30:04;;;;;;;;;;;20.20;56.20;;;;;;5039994;28;1320;-67
2022/02/27 12:32:30;;;;;;;;;;;20.20;56.20;;;;;;5036667;28;1184;-68
2022/02/27 12:34:55;;;;;;;;;;;20.20;56.10;;;;;;5044354;28;1472;-67
2022/02/27 12:37:21;;;;;;;;;;;20.20;56.20;;;;;;5055444;28;1914;-67
2022/02/27 12:39:48;;;;;;;;;;;20.20;56.20;;;;;;5055304;28;1559;-68
2022/02/27 12:42:14;;;;;;;;;;;20.20;56.20;;;;;;5055365;28;1398;-67
2022/02/27 12:44:41;;;;;;;;;;;20.20;56.20;;;;;;5056533;28;855;-67
2022/02/27 12:47:08;;;;;;;;;;;20.20;56.20;;;;;;5056496;28;835;-67
2022/02/27 12:52:22;;;;;;;;;;;20.20;56.30;;;;;;5056171;28;1257;-67
2022/02/27 12:54:49;;;;;;;;;;;20.20;56.40;;;;;;5056286;28;887;-67
2022/02/27 12:57:15;;;;;;;;;;;20.20;56.40;;;;;;5056311;28;1894;-67
2022/02/27 12:59:41;;;;;;;;;;;20.20;56.40;;;;;;5054817;28;776;-67
2022/02/27 13:02:07;;;;;;;;;;;20.20;56.40;;;;;;5056031;28;1284;-68
2022/02/27 13:04:32;;;;;;;;;;;20.10;56.40;;;;;;5055055;28;863;-67
2022/02/27 13:06:58;;;;;;;;;;;20.10;56.40;;;;;;5056388;28;827;-67
2022/02/27 13:09:26;;;;;;;;;;;20.10;56.40;;;;;;5055634;28;1046;-67
2022/02/27 13:11:53;;;;;;;;;;;20.10;56.40;;;;;;5038334;28;1681;-67
2022/02/27 13:14:19;;;;;;;;;;;20.10;56.50;;;;;;5038342;28;1112;-67
2022/02/27 13:16:47;;;;;;;;;;;20.10;56.50;;;;;;5054618;28;1475;-67
2022/02/27 13:19:12;;;;;;;;;;;20.10;56.50;;;;;;5037712;28;1898;-67
2022/02/27 13:21:38;;;;;;;;;;;20.10;56.50;;;;;;5048890;28;1203;-68
2022/02/27 13:24:07;;;;;;;;;;;20.00;56.50;;;;;;5034536;28;879;-67
2022/02/27 13:26:42;;;;;;;;;;;20.00;56.50;;;;;;5035819;28;941;-67
2022/02/27 13:29:08;;;;;;;;;;;20.10;56.60;;;;;;5044264;28;1155;-67
2022/02/27 13:31:33;;;;;;;;;;;20.00;56.60;;;;;;5055495;28;1190;-67
2022/02/27 13:34:00;;;;;;;;;;;20.00;56.60;;;;;;5055263;28;1130;-67
2022/02/27 13:36:26;;;;;;;;;;;20.00;56.60;;;;;;5054295;28;903;-67
2022/02/27 13:38:52;;;;;;;;;;;20.00;56.70;;;;;;5052637;28;1906;-67
2022/02/27 13:41:30;;;;;;;;;;;20.00;56.70;;;;;;5055477;28;1235;-67
2022/02/27 13:43:55;;;;;;;;;;;20.00;56.70;;;;;;5054212;28;894;-67
2022/02/27 13:46:20;;;;;;;;;;;20.00;56.70;;;;;;5054181;28;923;-67
2022/02/27 13:48:46;;;;;;;;;;;19.90;56.70;;;;;;5054888;28;845;-68
2022/02/27 13:51:25;;;;;;;;;;;19.90;56.70;;;;;;5055167;28;1189;-68
2022/02/27 13:53:50;;;;;;;;;;;20.00;56.80;;;;;;5054057;28;859;-67
2022/02/27 13:56:16;;;;;;;;;;;19.90;56.80;;;;;;5055315;28;712;-67
2022/02/27 13:58:41;;;;;;;;;;;19.90;56.80;;;;;;5055245;28;1890;-68
2022/02/27 14:01:13;;;;;;;;;;;19.90;56.80;;;;;;5053627;28;1187;-68
2022/02/27 14:03:39;;;;;;;;;;;19.90;56.90;;;;;;5053896;28;1084;-67
2022/02/27 14:06:04;;;;;;;;;;;19.90;56.90;;;;;;5053701;28;863;-67
2022/02/27 14:08:33;;;;;;;;;;;19.90;56.90;;;;;;5053405;28;1591;-67
2022/02/27 14:11:20;;;;;;;;;;;19.90;56.90;;;;;;5053657;28;1225;-67
2022/02/27 14:13:45;;;;;;;;;;;19.90;57.00;;;;;;5053501;28;827;-67
2022/02/27 14:16:11;;;;;;;;;;;19.90;57.00;;;;;;5055088;28;811;-67
2022/02/27 14:18:37;;;;;;;;;;;19.90;57.00;;;;;;5054542;28;1906;-67
2022/02/27 14:21:19;;;;;;;;;;;19.90;57.00;;;;;;5051682;28;1192;-67
2022/02/27 14:23:51;;;;;;;;;;;19.90;57.10;;;;;;5033960;28;2175;-67
2022/02/27 14:26:16;;;;;;;;;;;19.80;57.00;;;;;;5038677;28;2063;-67
2022/02/27 14:28:45;;;;;;;;;;;19.80;57.00;;;;;;5018583;28;1480;-68
2022/02/27 14:31:11;;;;;;;;;;;19.80;57.10;;;;;;5062414;28;1977;-67
2022/02/27 14:33:37;;;;;;;;;;;19.80;57.10;;;;;;5050531;28;1154;-67
2022/02/27 14:36:03;;;;;;;;;;;19.80;57.10;;;;;;5042995;28;1156;-68